createdAt,value
2023-04-12T00:00:01.790Z,99006.63
2023-04-12T00:00:15.229Z,99009.50
2023-04-12T00:00:27.486Z,99004.31
2023-04-12T00:00:39.502Z,99006.97
2023-04-12T00:00:52.690Z,99000.94
2023-04-12T00:01:05.612Z,99002.59
2023-04-12T00:01:17.568Z,99005.13
2023-04-12T00:01:29.519Z,99003.88
2023-04-12T00:01:41.519Z,99000.50
2023-04-12T00:01:53.501Z,99000.38
2023-04-12T00:02:07.150Z,99009.72
2023-04-12T00:02:19.277Z,99007.91
2023-04-12T00:02:35.626Z,99010.44
2023-04-12T00:02:49.780Z,99012.94
2023-04-12T00:03:06.228Z,98999.88
2023-04-12T00:03:20.794Z,99006.91
2023-04-12T00:03:36.282Z,99009.56
2023-04-12T00:03:50.955Z,99005.41
2023-04-12T00:04:05.078Z,99006.28
2023-04-12T00:04:17.380Z,99002.75
2023-04-12T00:04:36.734Z,99006.19
2023-04-12T00:04:55.328Z,99003.47
2023-04-12T00:05:09.625Z,98999.81
2023-04-12T00:05:27.281Z,99003.19
2023-04-12T00:05:39.177Z,99002.19
2023-04-12T00:05:54.814Z,99004.72
2023-04-12T00:06:07.602Z,98999.53
2023-04-12T00:06:25.133Z,98998.69
2023-04-12T00:06:37.023Z,98995.09
2023-04-12T00:06:50.715Z,99001.28
2023-04-12T00:07:02.865Z,99002.97
2023-04-12T00:07:14.791Z,98996.88
2023-04-12T00:07:27.427Z,98998.53
2023-04-12T00:07:39.573Z,98994.03
2023-04-12T00:07:53.179Z,98993.13
2023-04-12T00:08:06.166Z,98997.28
2023-04-12T00:08:18.083Z,98992.09
2023-04-12T00:08:35.714Z,98995.47
2023-04-12T00:08:47.634Z,98995.47
2023-04-12T00:09:00.942Z,98993.63
2023-04-12T00:09:13.689Z,98997.00
2023-04-12T00:09:30.302Z,98999.66
2023-04-12T00:09:43.351Z,98993.63
2023-04-12T00:09:55.776Z,98995.47
2023-04-12T00:10:09.333Z,98992.63
2023-04-12T00:10:21.931Z,98997.06
2023-04-12T00:10:33.943Z,98997.00
2023-04-12T00:10:46.037Z,98998.53
2023-04-12T00:10:57.976Z,98995.84
2023-04-12T00:11:09.887Z,98994.88
2023-04-12T00:11:21.807Z,98999.91
2023-04-12T00:11:33.763Z,98991.22
2023-04-12T00:11:45.823Z,98996.25
2023-04-12T00:11:59.071Z,98994.44
2023-04-12T00:12:10.964Z,98992.75
2023-04-12T00:12:22.997Z,98997.97
2023-04-12T00:12:38.143Z,98999.63
2023-04-12T00:12:50.078Z,98996.13
2023-04-12T00:13:02.040Z,98996.97
2023-04-12T00:13:14.125Z,98989.09
2023-04-12T00:13:26.205Z,98988.09
2023-04-12T00:13:38.829Z,98992.28
2023-04-12T00:13:51.989Z,98995.66
2023-04-12T00:14:03.875Z,98987.78
2023-04-12T00:14:15.876Z,98993.84
2023-04-12T00:14:27.866Z,98995.53
2023-04-12T00:14:39.865Z,98994.59
2023-04-12T00:14:51.819Z,98998.06
2023-04-12T00:15:05.167Z,98992.78
2023-04-12T00:15:18.740Z,98993.56
2023-04-12T00:15:30.788Z,98991.72
2023-04-12T00:15:42.709Z,98983.75
2023-04-12T00:15:54.923Z,98984.69
2023-04-12T00:16:07.368Z,98984.69
2023-04-12T00:16:19.375Z,98986.53
2023-04-12T00:16:32.335Z,98983.81
2023-04-12T00:16:44.549Z,98989.13
2023-04-12T00:16:56.466Z,98989.13
2023-04-12T00:17:08.380Z,98989.91
2023-04-12T00:17:20.351Z,98985.53
2023-04-12T00:17:32.403Z,98985.38
2023-04-12T00:17:44.971Z,98986.16
2023-04-12T00:17:56.919Z,98980.88
2023-04-12T00:18:08.837Z,98982.59
2023-04-12T00:18:24.875Z,98983.41
2023-04-12T00:18:36.862Z,98985.97
2023-04-12T00:18:48.743Z,98986.84
2023-04-12T00:19:01.658Z,98976.50
2023-04-12T00:19:13.573Z,98975.69
2023-04-12T00:19:27.511Z,98988.88
2023-04-12T00:19:42.653Z,98975.09
2023-04-12T00:19:54.537Z,98988.09
2023-04-12T00:20:12.144Z,98977.78
2023-04-12T00:20:24.499Z,98980.31
2023-04-12T00:20:36.452Z,98977.69
2023-04-12T00:20:48.331Z,98982.16
2023-04-12T00:21:00.624Z,98986.66
2023-04-12T00:21:13.429Z,98984.97
2023-04-12T00:21:28.799Z,98981.59
2023-04-12T00:21:40.869Z,98984.34
2023-04-12T00:21:53.492Z,98976.38
2023-04-12T00:22:06.133Z,98978.09
2023-04-12T00:22:18.162Z,98977.25
2023-04-12T00:22:31.368Z,98978.97
2023-04-12T00:22:43.431Z,98983.28
2023-04-12T00:22:57.527Z,98977.06
2023-04-12T00:23:10.546Z,98984.00
2023-04-12T00:23:22.476Z,98981.44
2023-04-12T00:23:34.361Z,98983.28
2023-04-12T00:23:47.415Z,98983.28
2023-04-12T00:23:59.731Z,98981.59
2023-04-12T00:24:13.909Z,98986.97
2023-04-12T00:24:26.689Z,98989.69
2023-04-12T00:24:40.382Z,98984.50
2023-04-12T00:24:52.303Z,98986.03
2023-04-12T00:25:04.746Z,98981.59
2023-04-12T00:25:16.708Z,98988.56
2023-04-12T00:25:28.632Z,98988.56
2023-04-12T00:25:40.587Z,98989.50
2023-04-12T00:25:52.488Z,98978.97
2023-04-12T00:26:05.185Z,98979.91
2023-04-12T00:26:17.118Z,98986.78
2023-04-12T00:26:29.122Z,98983.28
2023-04-12T00:26:41.042Z,98978.91
2023-04-12T00:26:54.182Z,98982.44
2023-04-12T00:27:06.328Z,98981.75
2023-04-12T00:27:18.303Z,98981.88
2023-04-12T00:27:30.312Z,98975.13
2023-04-12T00:27:42.240Z,98985.72
2023-04-12T00:27:54.184Z,98987.38
2023-04-12T00:28:06.224Z,98987.38
2023-04-12T00:28:18.168Z,98984.00
2023-04-12T00:28:31.333Z,98980.50
2023-04-12T00:28:43.228Z,98984.16
2023-04-12T00:28:55.633Z,98982.63
2023-04-12T00:29:07.514Z,98987.06
2023-04-12T00:29:19.454Z,98988.13
2023-04-12T00:29:31.926Z,98977.72
2023-04-12T00:29:43.943Z,98979.84
2023-04-12T00:29:55.887Z,98977.84
2023-04-12T00:30:08.489Z,98984.81
2023-04-12T00:30:21.257Z,98977.25
2023-04-12T00:30:33.249Z,98979.19
2023-04-12T00:30:45.928Z,98987.16
2023-04-12T00:30:57.923Z,98977.44
2023-04-12T00:31:09.918Z,98981.66
2023-04-12T00:31:21.935Z,98980.03
2023-04-12T00:31:33.902Z,98980.25
2023-04-12T00:31:45.954Z,98977.66
2023-04-12T00:31:58.268Z,98975.06
2023-04-12T00:32:11.213Z,98976.88
2023-04-12T00:32:23.150Z,98978.72
2023-04-12T00:32:35.372Z,98975.22
2023-04-12T00:32:47.303Z,98976.88
2023-04-12T00:32:59.337Z,98975.22
2023-04-12T00:33:11.393Z,98977.72
2023-04-12T00:33:23.318Z,98978.59
2023-04-12T00:33:35.408Z,98980.25
2023-04-12T00:33:47.361Z,98971.56
2023-04-12T00:33:59.349Z,98975.06
2023-04-12T00:34:11.540Z,98981.03
2023-04-12T00:34:23.569Z,98983.56
2023-04-12T00:34:35.463Z,98980.13
2023-04-12T00:34:47.385Z,98978.44
2023-04-12T00:34:59.348Z,98977.53
2023-04-12T00:35:11.291Z,98970.56
2023-04-12T00:35:23.257Z,98979.19
2023-04-12T00:35:35.354Z,98976.59
2023-04-12T00:35:47.327Z,98978.31
2023-04-12T00:35:59.406Z,98972.22
2023-04-12T00:36:11.558Z,98978.31
2023-04-12T00:36:23.603Z,98975.81
2023-04-12T00:36:35.534Z,98981.97
2023-04-12T00:36:47.426Z,98972.38
2023-04-12T00:37:00.443Z,98979.19
2023-04-12T00:37:12.380Z,98979.13
2023-04-12T00:37:24.332Z,98976.47
2023-04-12T00:37:36.642Z,98978.13
2023-04-12T00:37:48.581Z,98978.13
2023-04-12T00:38:02.928Z,98980.03
2023-04-12T00:38:16.090Z,98974.00
2023-04-12T00:38:27.969Z,98976.59
2023-04-12T00:38:40.997Z,98976.59
2023-04-12T00:38:52.921Z,98976.59
2023-04-12T00:39:05.033Z,98979.19
2023-04-12T00:39:17.024Z,98974.00
2023-04-12T00:39:29.277Z,98979.13
2023-04-12T00:39:41.216Z,98975.69
2023-04-12T00:39:58.910Z,98974.75
2023-04-12T00:40:11.713Z,98973.50
2023-04-12T00:40:23.697Z,98975.22
2023-04-12T00:40:36.549Z,98970.97
2023-04-12T00:40:48.446Z,98980.53
2023-04-12T00:41:00.528Z,98978.84
2023-04-12T00:41:13.573Z,98977.28
2023-04-12T00:41:26.292Z,98976.47
2023-04-12T00:41:38.253Z,98973.78
2023-04-12T00:41:50.609Z,98979.91
2023-04-12T00:42:05.648Z,98975.63
2023-04-12T00:42:17.553Z,98977.28
2023-04-12T00:42:29.489Z,98975.47
2023-04-12T00:42:41.893Z,98975.63
2023-04-12T00:42:53.842Z,98977.59
2023-04-12T00:43:05.789Z,98978.34
2023-04-12T00:43:18.814Z,98973.38
2023-04-12T00:43:30.996Z,98972.38
2023-04-12T00:43:43.226Z,98971.75
2023-04-12T00:43:55.789Z,98974.38
2023-04-12T00:44:07.916Z,98969.28
2023-04-12T00:44:19.848Z,98970.22
2023-04-12T00:44:33.209Z,98968.59
2023-04-12T00:44:45.139Z,98972.94
2023-04-12T00:44:59.793Z,98972.16
2023-04-12T00:45:15.244Z,98962.53
2023-04-12T00:45:27.288Z,98972.94
2023-04-12T00:45:39.238Z,98972.22
2023-04-12T00:45:51.197Z,98971.28
2023-04-12T00:46:04.144Z,98968.50
2023-04-12T00:46:17.867Z,98962.53
2023-04-12T00:46:30.630Z,98975.75
2023-04-12T00:46:44.059Z,98961.22
2023-04-12T00:46:56.305Z,98967.19
2023-04-12T00:47:08.539Z,98974.94
2023-04-12T00:47:20.950Z,98966.47
2023-04-12T00:47:35.640Z,98968.84
2023-04-12T00:47:47.887Z,98970.56
2023-04-12T00:47:59.869Z,98964.56
2023-04-12T00:48:12.799Z,98967.28
2023-04-12T00:48:26.845Z,98959.72
2023-04-12T00:48:39.428Z,98960.66
2023-04-12T00:48:51.559Z,98958.00
2023-04-12T00:49:03.906Z,98960.66
2023-04-12T00:49:15.983Z,98965.75
2023-04-12T00:49:30.622Z,98964.03
2023-04-12T00:49:42.613Z,98966.72
2023-04-12T00:49:54.494Z,98967.69
2023-04-12T00:50:08.394Z,98960.81
2023-04-12T00:50:21.170Z,98965.09
2023-04-12T00:50:34.105Z,98965.75
2023-04-12T00:50:46.587Z,98968.28
2023-04-12T00:50:58.613Z,98965.53
2023-04-12T00:51:10.643Z,98961.97
2023-04-12T00:51:25.337Z,98964.69
2023-04-12T00:51:38.126Z,98965.59
2023-04-12T00:51:51.231Z,98963.91
2023-04-12T00:52:08.462Z,98966.03
2023-04-12T00:52:20.604Z,98962.69
2023-04-12T00:52:36.223Z,98962.91
2023-04-12T00:52:48.180Z,98963.69
2023-04-12T00:53:00.576Z,98971.47
2023-04-12T00:53:14.400Z,98959.53
2023-04-12T00:53:28.016Z,98959.66
2023-04-12T00:53:41.128Z,98961.34
2023-04-12T00:53:58.123Z,98954.47
2023-04-12T00:54:11.050Z,98957.06
2023-04-12T00:54:23.013Z,98961.47
2023-04-12T00:54:35.850Z,98958.25
2023-04-12T00:54:47.963Z,98952.44
2023-04-12T00:55:10.588Z,98956.88
2023-04-12T00:55:23.091Z,98954.38
2023-04-12T00:55:36.061Z,98958.56
2023-04-12T00:55:50.023Z,98957.75
2023-04-12T00:56:03.834Z,98956.81
2023-04-12T00:56:17.092Z,98956.69
2023-04-12T00:56:29.795Z,98954.88
2023-04-12T00:56:41.742Z,98955.72
2023-04-12T00:56:53.815Z,98955.78
2023-04-12T00:57:06.196Z,98953.16
2023-04-12T00:57:18.207Z,98950.63
2023-04-12T00:57:38.110Z,98952.41
2023-04-12T00:57:50.017Z,98951.50
2023-04-12T00:58:01.945Z,98952.41
2023-04-12T00:58:14.770Z,98953.31
2023-04-12T00:58:26.694Z,98955.00
2023-04-12T00:58:38.728Z,98952.34
2023-04-12T00:58:50.909Z,98946.31
2023-04-12T00:59:02.797Z,98950.50
2023-04-12T00:59:15.224Z,98953.06
2023-04-12T00:59:28.223Z,98952.97
2023-04-12T00:59:40.846Z,98952.00
2023-04-12T00:59:53.129Z,98950.25
2023-04-12T01:00:17.151Z,98948.47
2023-04-12T01:00:29.169Z,98953.56
2023-04-12T01:00:41.825Z,98954.34
2023-04-12T01:00:54.833Z,98956.00
2023-04-12T01:01:07.244Z,98961.09
2023-04-12T01:01:19.587Z,98956.59
2023-04-12T01:01:32.020Z,98963.41
2023-04-12T01:01:45.405Z,98955.75
2023-04-12T01:01:58.297Z,98953.41
2023-04-12T01:02:10.451Z,98956.28
2023-04-12T01:02:22.772Z,98954.72
2023-04-12T01:02:35.666Z,98950.25
2023-04-12T01:02:50.473Z,98953.69
2023-04-12T01:03:05.397Z,98955.38
2023-04-12T01:03:23.173Z,98949.25
2023-04-12T01:03:42.745Z,98949.25
2023-04-12T01:04:00.984Z,98952.97
2023-04-12T01:04:13.953Z,98947.72
2023-04-12T01:04:28.025Z,98947.72
2023-04-12T01:04:43.477Z,98945.88
2023-04-12T01:04:58.540Z,98943.56
2023-04-12T01:05:14.585Z,98947.09
2023-04-12T01:05:27.134Z,98944.59
2023-04-12T01:05:50.229Z,98943.88
2023-04-12T01:06:21.066Z,98947.47
2023-04-12T01:06:46.412Z,98946.91
2023-04-12T01:07:03.611Z,98947.91
2023-04-12T01:07:15.817Z,98945.25
2023-04-12T01:07:30.660Z,98949.84
2023-04-12T01:07:55.765Z,98944.06
2023-04-12T01:08:24.077Z,98942.25
2023-04-12T01:08:57.799Z,98940.69
2023-04-12T01:09:21.471Z,98948.06
2023-04-12T01:09:53.197Z,98945.09
2023-04-12T01:10:36.687Z,98946.56
2023-04-12T01:11:05.219Z,98949.53
2023-04-12T01:11:32.593Z,98941.34
2023-04-12T01:11:51.215Z,98938.88
2023-04-12T01:12:16.222Z,98940.41
2023-04-12T01:12:33.780Z,98950.69
2023-04-12T01:13:08.828Z,98940.16
2023-04-12T01:13:20.708Z,98938.31
2023-04-12T01:13:37.794Z,98942.84
2023-04-12T01:14:18.502Z,98938.31
2023-04-12T01:14:55.905Z,98940.56
2023-04-12T01:15:12.050Z,98941.63
2023-04-12T01:15:26.276Z,98930.56
2023-04-12T01:15:50.088Z,98934.84
2023-04-12T01:16:15.275Z,98928.84
2023-04-12T01:16:36.414Z,98931.72
2023-04-12T01:16:53.664Z,98935.22
2023-04-12T01:17:08.092Z,98937.81
2023-04-12T01:17:25.000Z,98927.38
2023-04-12T01:17:59.623Z,98929.25
2023-04-12T01:18:23.625Z,98929.06
2023-04-12T01:18:40.813Z,98927.28
2023-04-12T01:18:59.809Z,98935.97
2023-04-12T01:19:35.976Z,98926.25
2023-04-12T01:19:57.663Z,98928.22
2023-04-12T01:20:23.427Z,98935.50
2023-04-12T01:20:44.827Z,98920.03
2023-04-12T01:21:09.753Z,98930.56
2023-04-12T01:21:36.233Z,98926.78
2023-04-12T01:22:00.381Z,98933.47
2023-04-12T01:22:38.604Z,98928.78
2023-04-12T01:23:31.347Z,98930.84
2023-04-12T01:23:52.147Z,98923.53
2023-04-12T01:24:19.561Z,98926.81
2023-04-12T01:24:58.427Z,98922.88
2023-04-12T01:25:23.969Z,98920.91
2023-04-12T01:25:51.773Z,98925.97
2023-04-12T01:26:25.519Z,98919.22
2023-04-12T01:26:49.399Z,98928.34
2023-04-12T01:27:03.167Z,98926.03
2023-04-12T01:27:35.970Z,98929.16
2023-04-12T01:27:54.466Z,98932.88
2023-04-12T01:28:10.250Z,98919.38
2023-04-12T01:28:27.545Z,98924.59
2023-04-12T01:28:43.318Z,98918.09
2023-04-12T01:28:56.420Z,98925.22
2023-04-12T01:29:11.117Z,98929.63
2023-04-12T01:29:27.081Z,98923.81
2023-04-12T01:29:40.752Z,98922.25
2023-04-12T01:29:52.720Z,98920.50
2023-04-12T01:30:07.940Z,98921.53
2023-04-12T01:30:20.901Z,98924.06
2023-04-12T01:30:33.774Z,98915.25
2023-04-12T01:30:47.835Z,98919.50
2023-04-12T01:31:03.264Z,98922.25
2023-04-12T01:31:15.552Z,98919.66
2023-04-12T01:31:30.020Z,98919.50
2023-04-12T01:31:53.216Z,98917.63
2023-04-12T01:32:06.288Z,98914.97
2023-04-12T01:32:20.007Z,98921.72
2023-04-12T01:32:34.516Z,98915.56
2023-04-12T01:32:53.089Z,98915.28
2023-04-12T01:33:07.798Z,98918.63
2023-04-12T01:33:20.668Z,98916.69
2023-04-12T01:33:36.805Z,98913.09
2023-04-12T01:33:51.285Z,98913.88
2023-04-12T01:34:04.713Z,98913.88
2023-04-12T01:34:17.794Z,98916.44
2023-04-12T01:34:32.639Z,98920.66
2023-04-12T01:34:45.489Z,98916.09
2023-04-12T01:34:59.255Z,98916.94
2023-04-12T01:35:12.041Z,98915.13
2023-04-12T01:35:28.278Z,98915.13
2023-04-12T01:35:41.252Z,98914.97
2023-04-12T01:35:54.649Z,98912.53
2023-04-12T01:36:13.849Z,98911.59
2023-04-12T01:36:27.428Z,98912.38
2023-04-12T01:36:41.125Z,98914.13
2023-04-12T01:36:55.230Z,98911.75
2023-04-12T01:37:08.196Z,98910.88
2023-04-12T01:37:21.579Z,98910.88
2023-04-12T01:37:35.151Z,98916.03
2023-04-12T01:37:47.286Z,98913.44
2023-04-12T01:38:00.137Z,98913.44
2023-04-12T01:38:12.406Z,98912.59
2023-04-12T01:38:24.785Z,98910.72
2023-04-12T01:38:36.713Z,98912.53
2023-04-12T01:38:50.920Z,98907.34
2023-04-12T01:39:04.580Z,98904.72
2023-04-12T01:39:16.658Z,98908.88
2023-04-12T01:39:30.810Z,98902.81
2023-04-12T01:39:43.092Z,98904.47
2023-04-12T01:39:55.035Z,98900.94
2023-04-12T01:40:09.203Z,98897.44
2023-04-12T01:40:21.322Z,98900.81
2023-04-12T01:40:33.541Z,98900.75
2023-04-12T01:40:46.133Z,98903.25
2023-04-12T01:40:58.212Z,98895.47
2023-04-12T01:41:10.294Z,98897.22
2023-04-12T01:41:22.276Z,98895.34
2023-04-12T01:41:39.820Z,98894.41
2023-04-12T01:41:51.748Z,98898.66
2023-04-12T01:42:03.762Z,98896.97
2023-04-12T01:42:21.365Z,98900.28
2023-04-12T01:42:33.556Z,98898.44
2023-04-12T01:42:46.710Z,98897.59
2023-04-12T01:43:05.399Z,98895.91
2023-04-12T01:43:17.529Z,98888.16
2023-04-12T01:43:29.417Z,98903.91
2023-04-12T01:43:45.991Z,98893.53
2023-04-12T01:43:58.233Z,98902.94
2023-04-12T01:44:12.907Z,98894.28
2023-04-12T01:44:24.887Z,98895.19
2023-04-12T01:44:37.164Z,98895.06
2023-04-12T01:44:50.508Z,98896.75
2023-04-12T01:45:03.828Z,98894.13
2023-04-12T01:45:16.036Z,98896.75
2023-04-12T01:45:27.932Z,98898.44
2023-04-12T01:45:41.501Z,98888.94
2023-04-12T01:45:53.970Z,98897.50
2023-04-12T01:46:06.594Z,98899.16
2023-04-12T01:46:22.464Z,98891.41
2023-04-12T01:46:37.407Z,98893.09
2023-04-12T01:46:49.961Z,98886.06
2023-04-12T01:47:02.251Z,98886.06
2023-04-12T01:47:14.805Z,98887.75
2023-04-12T01:47:27.508Z,98882.50
2023-04-12T01:47:39.715Z,98888.53
2023-04-12T01:47:51.696Z,98885.00
2023-04-12T01:48:08.759Z,98885.94
2023-04-12T01:48:20.823Z,98884.13
2023-04-12T01:48:32.769Z,98884.25
2023-04-12T01:48:52.743Z,98887.00
2023-04-12T01:49:05.612Z,98885.38
2023-04-12T01:49:18.906Z,98880.88
2023-04-12T01:49:42.706Z,98879.81
2023-04-12T01:50:27.692Z,98879.63
2023-04-12T01:50:39.660Z,98879.91
2023-04-12T01:51:09.400Z,98875.53
2023-04-12T01:51:46.027Z,98877.22
2023-04-12T01:52:19.314Z,98871.88
2023-04-12T01:52:35.625Z,98863.97
2023-04-12T01:53:01.590Z,98872.53
2023-04-12T01:53:28.432Z,98873.22
2023-04-12T01:53:54.583Z,98869.66
2023-04-12T01:54:19.557Z,98867.53
2023-04-12T01:54:37.216Z,98863.44
2023-04-12T01:54:54.783Z,98863.44
2023-04-12T01:55:07.224Z,98865.09
2023-04-12T01:55:22.009Z,98861.63
2023-04-12T01:55:37.263Z,98861.63
2023-04-12T01:55:50.986Z,98860.78
2023-04-12T01:56:08.703Z,98865.00
2023-04-12T01:56:22.733Z,98862.38
2023-04-12T01:56:37.924Z,98863.31
2023-04-12T01:56:57.849Z,98858.00
2023-04-12T01:57:11.346Z,98858.75
2023-04-12T01:57:23.945Z,98858.59
2023-04-12T01:57:38.935Z,98856.84
2023-04-12T01:57:53.255Z,98862.91
2023-04-12T01:58:05.956Z,98854.19
2023-04-12T01:58:21.938Z,98854.19
2023-04-12T01:58:34.589Z,98857.56
2023-04-12T01:58:48.535Z,98853.13
2023-04-12T01:59:02.205Z,98852.22
2023-04-12T01:59:16.003Z,98852.13
2023-04-12T01:59:48.764Z,98857.25
2023-04-12T02:00:02.468Z,98851.16
2023-04-12T02:00:16.818Z,98848.84
2023-04-12T02:00:30.460Z,98847.44
2023-04-12T02:00:44.319Z,98851.75
2023-04-12T02:00:57.649Z,98853.75
2023-04-12T02:01:12.562Z,98852.63
2023-04-12T02:01:25.708Z,98844.78
2023-04-12T02:01:40.646Z,98842.25
2023-04-12T02:01:53.200Z,98848.28
2023-04-12T02:02:05.956Z,98841.19
2023-04-12T02:02:18.690Z,98845.47
2023-04-12T02:02:31.067Z,98845.47
2023-04-12T02:02:43.579Z,98840.13
2023-04-12T02:02:57.636Z,98843.56
2023-04-12T02:03:10.530Z,98837.47
2023-04-12T02:03:23.691Z,98838.28
2023-04-12T02:03:37.565Z,98836.47
2023-04-12T02:03:50.947Z,98838.16
2023-04-12T02:04:04.858Z,98845.03
2023-04-12T02:04:18.609Z,98844.13
2023-04-12T02:04:31.584Z,98834.63
2023-04-12T02:04:44.489Z,98842.31
2023-04-12T02:04:57.076Z,98844.03
2023-04-12T02:05:10.228Z,98837.00
2023-04-12T02:05:22.444Z,98839.53
2023-04-12T02:05:34.639Z,98840.38
2023-04-12T02:05:46.687Z,98832.66
2023-04-12T02:05:59.598Z,98843.06
2023-04-12T02:06:12.257Z,98835.25
2023-04-12T02:06:25.000Z,98841.25
2023-04-12T02:06:48.046Z,98833.44
2023-04-12T02:06:59.984Z,98835.09
2023-04-12T02:07:13.557Z,98841.06
2023-04-12T02:07:25.506Z,98829.00
2023-04-12T02:07:37.706Z,98839.41
2023-04-12T02:07:50.843Z,98834.22
2023-04-12T02:08:03.785Z,98836.75
2023-04-12T02:08:17.100Z,98828.06
2023-04-12T02:08:30.314Z,98832.38
2023-04-12T02:08:42.339Z,98827.16
2023-04-12T02:09:02.552Z,98831.38
2023-04-12T02:09:14.500Z,98828.72
2023-04-12T02:09:26.463Z,98832.06
2023-04-12T02:09:39.187Z,98834.75
2023-04-12T02:09:51.125Z,98832.22
2023-04-12T02:10:03.605Z,98832.16
2023-04-12T02:10:15.775Z,98828.53
2023-04-12T02:10:29.689Z,98829.31
2023-04-12T02:10:41.701Z,98828.72
2023-04-12T02:10:54.815Z,98834.97
2023-04-12T02:11:10.921Z,98833.38
2023-04-12T02:11:22.791Z,98824.78
2023-04-12T02:11:35.000Z,98830.97
2023-04-12T02:11:49.953Z,98837.16
2023-04-12T02:12:01.978Z,98828.53
2023-04-12T02:12:13.981Z,98823.31
2023-04-12T02:12:26.093Z,98818.97
2023-04-12T02:12:38.432Z,98826.59
2023-04-12T02:12:51.565Z,98819.72
2023-04-12T02:13:04.130Z,98820.84
2023-04-12T02:13:18.068Z,98817.50
2023-04-12T02:13:30.088Z,98831.25
2023-04-12T02:13:42.082Z,98822.56
2023-04-12T02:13:54.451Z,98821.69
2023-04-12T02:14:07.629Z,98827.00
2023-04-12T02:14:19.591Z,98820.84
2023-04-12T02:14:31.482Z,98824.53
2023-04-12T02:14:43.445Z,98826.34
2023-04-12T02:14:57.133Z,98826.34
2023-04-12T02:15:09.300Z,98821.16
2023-04-12T02:15:21.351Z,98823.63
2023-04-12T02:15:34.135Z,98818.31
2023-04-12T02:15:46.300Z,98811.44
2023-04-12T02:15:59.117Z,98814.81
2023-04-12T02:16:13.868Z,98819.97
2023-04-12T02:16:29.386Z,98813.81
2023-04-12T02:16:45.612Z,98814.59
2023-04-12T02:16:58.717Z,98817.19
2023-04-12T02:17:13.056Z,98814.53
2023-04-12T02:17:24.989Z,98820.56
2023-04-12T02:17:37.349Z,98816.19
2023-04-12T02:17:53.990Z,98813.59
2023-04-12T02:18:06.043Z,98812.94
2023-04-12T02:18:18.035Z,98818.06
2023-04-12T02:18:30.337Z,98816.25
2023-04-12T02:18:42.821Z,98810.91
2023-04-12T02:18:57.383Z,98811.75
2023-04-12T02:19:10.573Z,98813.56
2023-04-12T02:19:22.481Z,98810.03
2023-04-12T02:19:34.377Z,98816.13
2023-04-12T02:19:47.489Z,98809.97
2023-04-12T02:19:59.606Z,98815.25
2023-04-12T02:20:12.033Z,98812.88
2023-04-12T02:20:24.485Z,98814.16
2023-04-12T02:20:36.345Z,98818.34
2023-04-12T02:20:49.770Z,98815.75
2023-04-12T02:21:01.827Z,98819.25
2023-04-12T02:21:13.817Z,98817.59
2023-04-12T02:21:27.694Z,98821.09
2023-04-12T02:21:45.588Z,98815.00
2023-04-12T02:22:00.303Z,98818.34
2023-04-12T02:22:12.243Z,98812.31
2023-04-12T02:22:24.172Z,98810.84
2023-04-12T02:22:36.100Z,98816.81
2023-04-12T02:22:48.476Z,98809.78
2023-04-12T02:23:00.986Z,98815.00
2023-04-12T02:23:13.197Z,98813.16
2023-04-12T02:23:26.024Z,98807.97
2023-04-12T02:23:37.988Z,98808.78
2023-04-12T02:23:50.299Z,98815.88
2023-04-12T02:24:02.216Z,98815.00
2023-04-12T02:24:15.427Z,98814.16
2023-04-12T02:24:27.652Z,98811.47
2023-04-12T02:24:39.748Z,98806.25
2023-04-12T02:24:52.064Z,98809.78
2023-04-12T02:25:06.383Z,98801.16
2023-04-12T02:25:18.608Z,98813.56
2023-04-12T02:25:31.074Z,98810.38
2023-04-12T02:25:44.034Z,98807.00
2023-04-12T02:25:56.019Z,98804.63
2023-04-12T02:26:07.956Z,98803.75
2023-04-12T02:26:19.850Z,98810.00
2023-04-12T02:26:31.720Z,98807.28
2023-04-12T02:26:43.629Z,98804.75
2023-04-12T02:26:56.437Z,98801.38
2023-04-12T02:27:14.086Z,98806.50
2023-04-12T02:27:26.102Z,98803.25
2023-04-12T02:27:38.061Z,98808.44
2023-04-12T02:27:49.936Z,98809.50
2023-04-12T02:28:01.997Z,98804.31
2023-04-12T02:28:13.906Z,98804.38
2023-04-12T02:28:25.860Z,98804.25
2023-04-12T02:28:38.709Z,98800.81
2023-04-12T02:28:52.382Z,98805.03
2023-04-12T02:29:08.938Z,98802.47
2023-04-12T02:29:20.854Z,98804.47
2023-04-12T02:29:32.738Z,98813.03
2023-04-12T02:29:45.109Z,98808.13
2023-04-12T02:29:58.563Z,98807.84
2023-04-12T02:30:11.344Z,98806.34
2023-04-12T02:30:23.226Z,98806.28
2023-04-12T02:30:35.598Z,98807.84
2023-04-12T02:30:47.667Z,98813.88
2023-04-12T02:30:59.657Z,98805.09
2023-04-12T02:31:12.094Z,98804.03
2023-04-12T02:31:24.599Z,98802.34
2023-04-12T02:31:38.780Z,98806.84
2023-04-12T02:31:51.113Z,98807.69
2023-04-12T02:32:03.127Z,98807.69
2023-04-12T02:32:21.614Z,98807.69
2023-04-12T02:32:44.970Z,98805.84
2023-04-12T02:32:57.789Z,98804.03
2023-04-12T02:33:11.577Z,98802.19
2023-04-12T02:33:28.106Z,98805.72
2023-04-12T02:33:41.156Z,98799.53
2023-04-12T02:33:53.107Z,98792.59
2023-04-12T02:34:06.349Z,98803.75
2023-04-12T02:34:18.910Z,98796.88
2023-04-12T02:34:34.256Z,98794.41
2023-04-12T02:34:51.235Z,98798.22
2023-04-12T02:35:03.252Z,98797.56
2023-04-12T02:35:19.391Z,98798.22
2023-04-12T02:35:32.019Z,98792.03
2023-04-12T02:35:44.037Z,98797.16
2023-04-12T02:35:57.320Z,98788.44
2023-04-12T02:36:11.283Z,98800.53
2023-04-12T02:36:23.220Z,98796.28
2023-04-12T02:36:37.541Z,98798.22
2023-04-12T02:36:49.698Z,98792.09
2023-04-12T02:37:03.707Z,98795.47
2023-04-12T02:37:19.018Z,98788.44
2023-04-12T02:37:31.626Z,98791.97
2023-04-12T02:37:46.648Z,98795.41
2023-04-12T02:37:58.518Z,98794.63
2023-04-12T02:38:10.626Z,98796.66
2023-04-12T02:38:23.236Z,98794.13
2023-04-12T02:38:35.323Z,98793.16
2023-04-12T02:38:50.749Z,98790.44
2023-04-12T02:39:02.640Z,98792.09
2023-04-12T02:39:14.622Z,98789.38
2023-04-12T02:39:26.530Z,98792.03
2023-04-12T02:39:38.556Z,98782.41
2023-04-12T02:39:50.429Z,98788.44
2023-04-12T02:40:06.585Z,98794.63
2023-04-12T02:40:18.484Z,98790.25
2023-04-12T02:40:30.589Z,98793.63
2023-04-12T02:40:42.524Z,98791.81
2023-04-12T02:40:54.753Z,98791.88
2023-04-12T02:41:07.029Z,98791.81
2023-04-12T02:41:19.618Z,98792.59
2023-04-12T02:41:31.529Z,98791.69
2023-04-12T02:41:43.456Z,98788.31
2023-04-12T02:41:55.368Z,98791.81
2023-04-12T02:42:07.291Z,98793.63
2023-04-12T02:42:21.733Z,98794.56
2023-04-12T02:42:36.709Z,98784.94
2023-04-12T02:42:48.645Z,98790.97
2023-04-12T02:43:00.819Z,98785.66
2023-04-12T02:43:12.757Z,98788.31
2023-04-12T02:43:24.700Z,98787.38
2023-04-12T02:43:36.606Z,98784.94
2023-04-12T02:43:48.759Z,98784.25
2023-04-12T02:44:00.659Z,98780.94
2023-04-12T02:44:13.122Z,98788.88
2023-04-12T02:44:25.079Z,98787.06
2023-04-12T02:44:37.012Z,98791.47
2023-04-12T02:44:48.930Z,98783.69
2023-04-12T02:45:01.153Z,98785.34
2023-04-12T02:45:13.302Z,98783.53
2023-04-12T02:45:25.321Z,98779.25
2023-04-12T02:45:37.213Z,98784.31
2023-04-12T02:45:49.311Z,98780.72
2023-04-12T02:46:01.383Z,98786.06
2023-04-12T02:46:21.593Z,98787.44
2023-04-12T02:46:34.034Z,98781.97
2023-04-12T02:46:45.989Z,98783.53
2023-04-12T02:46:57.970Z,98782.63
2023-04-12T02:47:09.892Z,98781.84
2023-04-12T02:47:21.766Z,98778.41
2023-04-12T02:47:37.296Z,98780.09
2023-04-12T02:47:49.237Z,98779.44
2023-04-12T02:48:01.234Z,98776.78
2023-04-12T02:48:13.229Z,98777.72